createdAt,value
2023-02-11T00:01:20.283Z,20.39
2023-02-11T00:06:23.136Z,20.36
2023-02-11T00:11:30.261Z,20.35
2023-02-11T00:16:33.118Z,20.37
2023-02-11T00:21:35.981Z,20.34
2023-02-11T00:26:40.173Z,20.28
2023-02-11T00:31:43.209Z,20.33
2023-02-11T00:36:46.222Z,20.30
2023-02-11T00:41:52.151Z,20.32
2023-02-11T00:46:54.926Z,20.29
2023-02-11T00:51:57.710Z,20.31
2023-02-11T00:57:01.810Z,20.29
2023-02-11T01:02:04.690Z,20.25
2023-02-11T01:07:07.458Z,20.26
2023-02-11T01:12:11.649Z,20.26
2023-02-11T01:17:16.878Z,20.26
2023-02-11T01:22:19.687Z,20.21
2023-02-11T01:27:24.762Z,20.23
2023-02-11T01:32:27.638Z,20.23
2023-02-11T01:37:30.424Z,20.23
2023-02-11T01:42:34.864Z,20.26
2023-02-11T01:47:37.699Z,20.20
2023-02-11T01:52:40.568Z,20.24
2023-02-11T01:57:46.673Z,20.24
2023-02-11T02:02:52.306Z,20.27
2023-02-11T02:07:59.987Z,20.24
2023-02-11T02:13:05.142Z,20.24
2023-02-11T02:18:14.164Z,20.27
2023-02-11T02:23:34.242Z,20.23
2023-02-11T02:28:47.860Z,20.31
2023-02-11T02:33:54.410Z,20.27
2023-02-11T02:38:58.942Z,20.22
2023-02-11T02:44:01.790Z,20.20
2023-02-11T02:49:07.774Z,20.22
2023-02-11T02:54:37.888Z,20.29
2023-02-11T02:59:45.377Z,20.30
2023-02-11T03:04:51.284Z,20.22
2023-02-11T03:09:56.418Z,20.17
2023-02-11T03:14:59.399Z,20.16
2023-02-11T03:20:04.216Z,20.15
2023-02-11T03:25:07.754Z,20.15
2023-02-11T03:30:12.468Z,20.19
2023-02-11T03:35:17.886Z,20.17
2023-02-11T03:40:21.499Z,20.15
2023-02-11T03:45:24.859Z,20.14
2023-02-11T03:50:29.074Z,20.14
2023-02-11T03:55:32.037Z,20.15
2023-02-11T04:00:36.622Z,20.19
2023-02-11T04:05:40.819Z,20.15
2023-02-11T04:10:43.550Z,20.18
2023-02-11T04:15:48.807Z,20.17
2023-02-11T04:20:53.273Z,20.13
2023-02-11T04:25:56.058Z,20.14
2023-02-11T04:30:58.921Z,20.14
2023-02-11T04:36:03.104Z,20.12
2023-02-11T04:41:06.204Z,20.11
2023-02-11T04:46:09.092Z,20.12
2023-02-11T04:51:13.453Z,20.12
2023-02-11T04:56:16.241Z,20.12
2023-02-11T05:01:19.104Z,20.13
2023-02-11T05:06:23.407Z,20.11
2023-02-11T05:11:26.408Z,20.12
2023-02-11T05:16:29.241Z,20.09
2023-02-11T05:21:33.470Z,20.13
2023-02-11T05:26:36.294Z,20.12
2023-02-11T05:31:39.116Z,20.13
2023-02-11T05:36:43.283Z,20.11
2023-02-11T05:41:46.307Z,20.13
2023-02-11T05:46:49.523Z,20.12
2023-02-11T05:51:53.689Z,19.97
2023-02-11T05:56:56.500Z,20.13
2023-02-11T06:01:59.259Z,20.12
2023-02-11T06:07:03.515Z,20.16
2023-02-11T06:12:06.543Z,20.15
2023-02-11T06:17:09.550Z,20.12
2023-02-11T06:22:13.825Z,20.10
2023-02-11T06:27:17.410Z,20.12
2023-02-11T06:32:42.372Z,20.15
2023-02-11T06:37:45.105Z,20.12
2023-02-11T06:42:48.040Z,20.12
2023-02-11T06:47:52.323Z,20.08
2023-02-11T06:52:56.505Z,20.10
2023-02-11T06:57:59.327Z,20.09
2023-02-11T07:03:02.565Z,20.09
2023-02-11T07:08:06.947Z,20.03
2023-02-11T07:13:09.766Z,19.99
2023-02-11T07:18:14.622Z,19.98
2023-02-11T07:23:18.891Z,19.98
2023-02-11T07:28:21.814Z,19.98
2023-02-11T07:33:24.860Z,19.94
2023-02-11T07:38:29.097Z,19.89
2023-02-11T07:43:31.993Z,19.91
2023-02-11T07:48:34.883Z,19.92
2023-02-11T07:53:39.148Z,19.87
2023-02-11T07:58:42.357Z,19.90
2023-02-11T08:03:45.268Z,19.93
2023-02-11T08:08:49.583Z,20.16
2023-02-11T08:13:53.233Z,20.32
2023-02-11T08:18:57.405Z,20.44
2023-02-11T08:24:02.333Z,20.51
2023-02-11T08:29:07.789Z,20.53
2023-02-11T08:34:11.491Z,20.52
2023-02-11T08:39:19.771Z,20.63
2023-02-11T08:44:23.478Z,20.07
2023-02-11T08:49:26.230Z,19.97
2023-02-11T08:54:30.423Z,20.37
2023-02-11T08:59:33.456Z,20.63
2023-02-11T09:04:36.242Z,20.78
2023-02-11T09:09:40.620Z,20.91
2023-02-11T09:14:43.490Z,20.97
2023-02-11T09:19:46.290Z,21.04
2023-02-11T09:24:50.454Z,21.17
2023-02-11T09:29:53.278Z,21.21
2023-02-11T09:34:56.026Z,21.27
2023-02-11T09:40:00.234Z,21.35
2023-02-11T09:45:03.779Z,21.36
2023-02-11T09:50:07.835Z,21.44
2023-02-11T09:55:18.528Z,21.49
2023-02-11T10:00:23.747Z,21.58
2023-02-11T10:05:33.502Z,21.65
2023-02-11T10:10:42.856Z,21.74
2023-02-11T10:15:46.718Z,21.78
2023-02-11T10:21:01.868Z,21.83
2023-02-11T10:26:11.720Z,21.88
2023-02-11T10:31:16.490Z,21.87
2023-02-11T10:36:20.029Z,21.86
2023-02-11T10:41:27.448Z,21.94
2023-02-11T10:46:32.286Z,21.99
2023-02-11T10:51:35.353Z,21.98
2023-02-11T10:56:41.470Z,21.91
2023-02-11T11:01:47.117Z,21.94
2023-02-11T11:06:49.949Z,22.02
2023-02-11T11:11:54.605Z,21.94
2023-02-11T11:16:57.749Z,21.84
2023-02-11T11:22:00.510Z,21.92
2023-02-11T11:27:05.204Z,21.87
2023-02-11T11:32:12.288Z,21.88
2023-02-11T11:37:19.371Z,21.88
2023-02-11T11:42:30.350Z,21.92
2023-02-11T11:47:35.187Z,21.99
2023-02-11T11:52:42.826Z,21.95
2023-02-11T11:57:47.225Z,22.11
2023-02-11T12:03:23.153Z,22.15
2023-02-11T12:08:30.133Z,22.22
2023-02-11T12:13:47.447Z,22.19
2023-02-11T12:19:03.980Z,22.20
2023-02-11T12:24:12.227Z,22.18
2023-02-11T12:29:20.657Z,22.20
2023-02-11T12:34:30.872Z,22.24
2023-02-11T12:39:38.271Z,22.28
2023-02-11T12:44:49.435Z,22.29
2023-02-11T12:50:01.970Z,22.30
2023-02-11T12:55:09.144Z,22.32
2023-02-11T13:00:18.428Z,22.34
2023-02-11T13:05:24.774Z,22.35
2023-02-11T13:10:30.602Z,22.32
2023-02-11T13:15:34.882Z,22.29
2023-02-11T13:20:41.454Z,22.28
2023-02-11T13:25:46.561Z,22.32
2023-02-11T13:31:01.904Z,22.35
2023-02-11T13:36:18.908Z,22.34
2023-02-11T13:41:24.767Z,22.42
2023-02-11T13:46:29.896Z,22.42
2023-02-11T13:51:37.046Z,22.45
2023-02-11T13:56:40.666Z,22.49
2023-02-11T14:02:20.678Z,22.53
2023-02-11T14:07:45.175Z,22.52
2023-02-11T14:13:06.212Z,22.46
2023-02-11T14:18:54.126Z,22.42
2023-02-11T14:24:40.039Z,22.43
2023-02-11T14:29:44.522Z,22.45
2023-02-11T14:34:54.433Z,22.55
2023-02-11T14:40:03.537Z,22.60
2023-02-11T14:45:08.418Z,22.66
2023-02-11T14:50:17.551Z,22.69
2023-02-11T14:55:29.298Z,22.72
2023-02-11T15:00:32.285Z,22.75
2023-02-11T15:05:35.166Z,22.78
2023-02-11T15:10:42.875Z,22.75
2023-02-11T15:15:46.766Z,22.76
2023-02-11T15:20:50.269Z,22.79
2023-02-11T15:25:56.154Z,22.83
2023-02-11T15:31:00.569Z,22.84
2023-02-11T15:36:03.986Z,22.78
2023-02-11T15:41:08.442Z,22.88
2023-02-11T15:46:11.878Z,22.91
2023-02-11T15:51:20.865Z,22.92
2023-02-11T15:56:26.125Z,22.93
2023-02-11T16:01:33.968Z,22.91
2023-02-11T16:06:39.649Z,22.93
2023-02-11T16:11:58.134Z,22.91
2023-02-11T16:17:03.448Z,22.96
2023-02-11T16:22:09.181Z,22.95
2023-02-11T16:27:21.474Z,22.91
2023-02-11T16:32:25.957Z,22.94
2023-02-11T16:37:28.749Z,22.96
2023-02-11T16:42:33.106Z,22.94
2023-02-11T16:47:35.893Z,22.95
2023-02-11T16:52:38.753Z,22.99
2023-02-11T16:57:42.892Z,22.99
2023-02-11T17:02:45.790Z,22.99
2023-02-11T17:07:48.536Z,22.97
2023-02-11T17:12:53.444Z,22.95
2023-02-11T17:17:56.329Z,22.91
2023-02-11T17:22:59.154Z,22.88
2023-02-11T17:28:03.409Z,22.72
2023-02-11T17:33:06.252Z,22.75
2023-02-11T17:38:09.057Z,22.71
2023-02-11T17:43:13.274Z,22.60
2023-02-11T17:48:16.080Z,22.56
2023-02-11T17:53:19.049Z,22.50
2023-02-11T17:58:23.221Z,22.44
2023-02-11T18:03:26.230Z,22.38
2023-02-11T18:08:28.991Z,22.32
2023-02-11T18:13:33.156Z,22.32
2023-02-11T18:18:35.968Z,22.28
2023-02-11T18:23:38.731Z,22.27
2023-02-11T18:28:45.698Z,22.21
2023-02-11T18:33:48.983Z,22.20
2023-02-11T18:38:53.625Z,22.21
2023-02-11T18:44:02.677Z,22.16
2023-02-11T18:49:05.489Z,22.14
2023-02-11T18:54:08.291Z,22.09
2023-02-11T18:59:12.501Z,22.14
2023-02-11T19:04:19.729Z,22.08
2023-02-11T19:09:22.783Z,22.05
2023-02-11T19:14:28.103Z,22.01
2023-02-11T19:19:32.070Z,22.02
2023-02-11T19:24:34.996Z,22.01
2023-02-11T19:29:39.349Z,21.98
2023-02-11T19:34:42.250Z,21.93
2023-02-11T19:39:45.135Z,21.93
2023-02-11T19:44:49.610Z,21.90
2023-02-11T19:49:52.558Z,21.90
2023-02-11T19:54:55.601Z,21.87
2023-02-11T20:00:01.422Z,21.86
2023-02-11T20:05:04.849Z,21.86
2023-02-11T20:10:09.176Z,21.84
2023-02-11T20:15:13.375Z,21.86
2023-02-11T20:20:18.649Z,21.85
2023-02-11T20:25:21.659Z,21.82
2023-02-11T20:30:26.139Z,21.83
2023-02-11T20:35:29.172Z,21.76
2023-02-11T20:40:32.409Z,21.81
2023-02-11T20:45:38.401Z,21.76
2023-02-11T20:50:41.495Z,21.77
2023-02-11T20:55:44.387Z,21.80
2023-02-11T21:00:48.833Z,21.78
2023-02-11T21:05:52.222Z,21.76
2023-02-11T21:10:55.236Z,21.77
2023-02-11T21:15:59.650Z,21.75
2023-02-11T21:21:03.462Z,21.72
2023-02-11T21:26:07.374Z,21.73
2023-02-11T21:31:18.871Z,21.71
2023-02-11T21:36:22.008Z,21.70
2023-02-11T21:41:25.186Z,21.71
2023-02-11T21:46:29.430Z,21.67
2023-02-11T21:51:32.324Z,21.65
2023-02-11T21:56:36.525Z,21.67
2023-02-11T22:01:40.869Z,21.66
2023-02-11T22:06:43.671Z,21.66
2023-02-11T22:11:46.459Z,21.65
2023-02-11T22:16:50.994Z,21.66
2023-02-11T22:21:54.030Z,21.66
2023-02-11T22:26:56.863Z,21.65
2023-02-11T22:32:01.124Z,21.63
2023-02-11T22:37:04.999Z,21.62
2023-02-11T22:42:08.113Z,21.63
2023-02-11T22:47:12.282Z,21.62
2023-02-11T22:52:15.100Z,21.65
2023-02-11T22:57:17.963Z,21.62
2023-02-11T23:02:22.174Z,21.60
2023-02-11T23:07:25.214Z,21.59
2023-02-11T23:12:28.042Z,21.61
2023-02-11T23:17:32.281Z,21.59
2023-02-11T23:22:35.042Z,21.62
2023-02-11T23:27:37.961Z,21.59
2023-02-11T23:32:42.192Z,21.59
2023-02-11T23:37:45.044Z,21.60
2023-02-11T23:42:49.016Z,21.60
2023-02-11T23:47:53.624Z,21.59
2023-02-11T23:52:56.450Z,21.58
2023-02-11T23:57:59.388Z,21.58
